Time,TemperatureF,DewpointF,PressureIn,WindDirection,WindDirectionDegrees,WindSpeedMPH,WindSpeedGustMPH,Humidity,HourlyPrecipIn,Conditions,Clouds,dailyrainin,SoftwareType,DateUTC
2013-01-25 00:04:00,31.1,11.2,30.23,East,99,5.8,5.8,43,0.00,CLR,,0.00,WeatherDisplay:10.37,2013-01-25 06:04:00,
2013-01-25 00:09:00,31.1,11.7,30.23,East,92,3.5,3.5,44,0.00,CLR,,0.00,WeatherDisplay:10.37,2013-01-25 06:09:00,
2013-01-25 00:14:00,31.1,11.2,30.23,East,92,3.5,3.5,43,0.00,CLR,,0.00,WeatherDisplay:10.37,2013-01-25 06:14:00,
2013-01-25 00:19:00,31.1,11.2,30.23,ESE,107,4.6,4.6,43,0.00,CLR,,0.00,WeatherDisplay:10.37,2013-01-25 06:19:00,
2013-01-25 00:24:00,31.1,11.7,30.23,East,88,2.3,2.3,44,0.00,CLR,,0.00,WeatherDisplay:10.37,2013-01-25 06:24:00,
2013-01-25 00:29:00,31.1,12.2,30.23,ENE,76,2.3,2.3,45,0.00,CLR,,0.00,WeatherDisplay:10.37,2013-01-25 06:29:00,
2013-01-25 00:34:00,31.1,11.7,30.22,East,83,2.3,2.3,44,0.00,CLR,,0.00,WeatherDisplay:10.37,2013-01-25 06:34:00,
2013-01-25 00:39:00,31.1,11.7,30.21,ENE,78,3.5,3.5,44,0.00,CLR,,0.00,WeatherDisplay:10.37,2013-01-25 06:39:00,
2013-01-25 00:44:00,31.0,12.1,30.21,ENE,65,3.5,3.5,45,0.00,CLR,,0.00,WeatherDisplay:10.37,2013-01-25 06:44:00,
2013-01-25 00:49:00,31.0,12.6,30.20,East,101,2.3,2.3,46,0.00,CLR,,0.00,WeatherDisplay:10.37,2013-01-25 06:49:00,
2013-01-25 00:54:00,30.9,12.5,30.20,ESE,111,2.3,2.3,46,0.00,CLR,,0.00,WeatherDisplay:10.37,2013-01-25 06:54:00,
2013-01-25 00:59:00,30.9,12.5,30.19,ESE,107,3.5,3.5,46,0.00,CLR,,0.00,WeatherDisplay:10.37,2013-01-25 06:59:00,
2013-01-25 01:04:00,30.9,12.5,30.19,East,100,3.5,3.5,46,0.00,CLR,,0.00,WeatherDisplay:10.37,2013-01-25 07:04:00,
2013-01-25 01:09:00,30.9,12.5,30.19,ESE,104,3.5,3.5,46,0.00,CLR,,0.00,WeatherDisplay:10.37,2013-01-25 07:09:00,
2013-01-25 01:14:00,30.8,12.4,30.19,East,99,4.6,4.6,46,0.00,CLR,,0.00,WeatherDisplay:10.37,2013-01-25 07:14:00,
2013-01-25 01:19:00,30.9,12.5,30.19,East,79,2.3,2.3,46,0.00,CLR,,0.00,WeatherDisplay:10.37,2013-01-25 07:19:00,
2013-01-25 01:24:00,30.9,13.0,30.19,East,83,0.0,0.0,47,0.00,CLR,,0.00,WeatherDisplay:10.37,2013-01-25 07:24:00,
2013-01-25 01:29:00,30.9,13.0,30.19,East,94,1.1,1.1,47,0.00,CLR,,0.00,WeatherDisplay:10.37,2013-01-25 07:29:00,
2013-01-25 01:34:00,30.9,14.0,30.19,ENE,73,3.5,3.5,49,0.00,CLR,,0.00,WeatherDisplay:10.37,2013-01-25 07:34:00,
2013-01-25 01:39:00,30.9,14.9,30.19,East,80,3.5,3.5,51,0.00,CLR,,0.00,WeatherDisplay:10.37,2013-01-25 07:39:00,
2013-01-25 01:44:00,30.8,15.2,30.19,East,82,3.0,3.0,52,0.00,CLR,,0.00,WeatherDisplay:10.37,2013-01-25 07:44:00,
2013-01-25 01:49:00,30.6,15.5,30.19,ESE,103,2.3,2.3,53,0.00,CLR,,0.00,WeatherDisplay:10.37,2013-01-25 07:49:00,
2013-01-25 01:54:00,30.5,15.4,30.18,ENE,71,1.1,1.1,53,0.00,CLR,,0.00,WeatherDisplay:10.37,2013-01-25 07:54:00,
2013-01-25 01:59:00,30.5,16.2,30.18,East,83,1.1,1.1,55,0.00,CLR,,0.00,WeatherDisplay:10.37,2013-01-25 07:59:00,
2013-01-25 02:04:00,30.3,17.3,30.18,ENE,78,2.3,2.3,58,0.00,CLR,,0.00,WeatherDisplay:10.37,2013-01-25 08:04:00,
2013-01-25 02:09:00,30.1,17.5,30.18,East,96,1.1,1.1,59,0.00,CLR,,0.00,WeatherDisplay:10.37,2013-01-25 08:09:00,
2013-01-25 02:14:00,29.9,17.3,30.17,East,80,2.0,2.0,59,0.00,CLR,,0.00,WeatherDisplay:10.37,2013-01-25 08:14:00,
2013-01-25 02:19:00,29.7,17.9,30.17,ENE,74,1.1,1.1,61,0.00,CLR,,0.00,WeatherDisplay:10.37,2013-01-25 08:19:00,
2013-01-25 02:24:00,29.6,17.8,30.17,ENE,75,0.0,0.1,61,0.00,CLR,,0.00,WeatherDisplay:10.37,2013-01-25 08:24:00,
2013-01-25 02:29:00,29.5,18.1,30.17,East,92,0.0,0.0,62,0.00,CLR,,0.00,WeatherDisplay:10.37,2013-01-25 08:29:00,
2013-01-25 02:34:00,29.6,18.2,30.17,East,92,0.0,0.0,62,0.00,CLR,,0.00,WeatherDisplay:10.37,2013-01-25 08:34:00,
2013-01-25 02:39:00,29.5,18.1,30.17,East,92,0.0,0.0,62,0.00,CLR,,0.00,WeatherDisplay:10.37,2013-01-25 08:39:00,
2013-01-25 02:44:00,29.5,18.4,30.16,NE,55,1.1,1.1,63,0.00,CLR,,0.00,WeatherDisplay:10.37,2013-01-25 08:44:00,
2013-01-25 02:49:00,29.4,18.0,30.16,NE,49,2.3,2.3,62,0.00,CLR,,0.00,WeatherDisplay:10.37,2013-01-25 08:49:00,
2013-01-25 02:54:00,29.4,18.0,30.16,NE,43,0.0,0.1,62,0.00,CLR,,0.00,WeatherDisplay:10.37,2013-01-25 08:54:00,
2013-01-25 02:59:00,29.4,18.0,30.16,NNE,17,0.0,0.3,62,0.00,CLR,,0.00,WeatherDisplay:10.37,2013-01-25 08:59:00,
2013-01-25 03:04:00,29.3,17.9,30.15,NNE,18,1.1,1.1,62,0.00,CLR,,0.00,WeatherDisplay:10.37,2013-01-25 09:04:00,
2013-01-25 03:09:00,29.1,19.2,30.16,NNE,23,0.0,0.0,66,0.00,CLR,,0.00,WeatherDisplay:10.37,2013-01-25 09:09:00,
2013-01-25 03:14:00,28.9,20.0,30.14,NNE,28,1.1,1.1,69,0.00,CLR,,0.00,WeatherDisplay:10.37,2013-01-25 09:14:00,
2013-01-25 03:19:00,28.7,20.5,30.15,NNE,28,2.3,2.3,71,0.00,CLR,,0.00,WeatherDisplay:10.37,2013-01-25 09:19:00,
2013-01-25 03:24:00,28.4,20.5,30.14,NE,36,1.1,1.1,72,0.00,CLR,,0.00,WeatherDisplay:10.37,2013-01-25 09:24:00,
2013-01-25 03:29:00,28.3,20.4,30.13,NE,36,2.3,2.3,72,0.00,CLR,,0.00,WeatherDisplay:10.37,2013-01-25 09:29:00,
2013-01-25 03:34:00,28.3,21.1,30.13,NE,36,1.1,0.0,74,0.00,CLR,,0.00,WeatherDisplay:10.37,2013-01-25 09:34:00,
2013-01-25 03:39:00,28.2,21.0,30.12,NE,36,1.1,1.1,74,0.00,CLR,,0.00,WeatherDisplay:10.37,2013-01-25 09:39:00,
2013-01-25 03:44:00,28.1,20.6,30.12,NE,46,1.1,1.1,73,0.00,CLR,,0.00,WeatherDisplay:10.37,2013-01-25 09:44:00,
2013-01-25 03:49:00,28.1,20.9,30.12,NE,49,1.1,1.1,74,0.00,CLR,,0.00,WeatherDisplay:10.37,2013-01-25 09:49:00,
2013-01-25 03:54:00,28.1,20.9,30.12,NE,49,0.0,0.0,74,0.00,CLR,,0.00,WeatherDisplay:10.37,2013-01-25 09:54:00,
2013-01-25 03:59:00,28.1,20.9,30.12,NE,49,0.0,0.0,74,0.00,CLR,,0.00,WeatherDisplay:10.37,2013-01-25 09:59:00,
2013-01-25 04:04:00,28.1,20.6,30.11,NE,49,1.1,1.1,73,0.00,CLR,,0.00,WeatherDisplay:10.37,2013-01-25 10:04:00,
2013-01-25 04:09:00,28.2,21.0,30.11,NE,49,0.0,0.0,74,0.00,CLR,,0.00,WeatherDisplay:10.37,2013-01-25 10:09:00,
2013-01-25 04:14:00,28.1,20.6,30.11,NE,49,1.1,1.1,73,0.00,CLR,,0.00,WeatherDisplay:10.37,2013-01-25 10:14:00,
2013-01-25 04:20:00,28.1,20.9,30.11,NE,49,2.3,0.0,74,0.00,CLR,,0.00,WeatherDisplay:10.37,2013-01-25 10:20:00,
2013-01-25 04:24:00,28.1,20.9,30.11,NE,49,0.0,0.0,74,0.00,CLR,,0.00,WeatherDisplay:10.37,2013-01-25 10:24:00,
2013-01-25 04:30:00,28.1,20.9,30.11,NE,49,2.3,0.0,74,0.00,CLR,,0.00,WeatherDisplay:10.37,2013-01-25 10:30:00,
2013-01-25 04:34:00,28.0,20.8,30.10,NE,49,1.1,0.0,74,0.00,CLR,,0.00,WeatherDisplay:10.37,2013-01-25 10:34:00,
2013-01-25 04:40:00,28.1,20.9,30.10,NE,47,1.0,1.0,74,0.00,CLR,,0.00,WeatherDisplay:10.37,2013-01-25 10:40:00,
2013-01-25 04:45:00,28.0,21.1,30.11,NE,47,0.0,0.0,75,0.00,CLR,,0.00,WeatherDisplay:10.37,2013-01-25 10:45:00,
2013-01-25 04:50:00,28.0,21.4,30.11,NE,47,0.0,0.0,76,0.00,CLR,,0.00,WeatherDisplay:10.37,2013-01-25 10:50:00,
2013-01-25 04:55:00,28.0,21.7,30.11,North,11,1.1,1.1,77,0.00,CLR,,0.00,WeatherDisplay:10.37,2013-01-25 10:55:00,
2013-01-25 05:00:00,28.0,21.7,30.12,North,355,3.5,3.5,77,0.00,CLR,,0.00,WeatherDisplay:10.37,2013-01-25 11:00:00,
2013-01-25 05:05:00,28.0,22.0,30.11,North,355,1.1,1.1,78,0.00,CLR,,0.00,WeatherDisplay:10.37,2013-01-25 11:05:00,
2013-01-25 05:10:00,28.0,22.0,30.10,NE,53,0.0,0.0,78,0.00,CLR,,0.00,WeatherDisplay:10.37,2013-01-25 11:10:00,
2013-01-25 05:15:00,28.0,22.3,30.12,NE,53,0.0,0.0,79,0.00,CLR,,0.00,WeatherDisplay:10.37,2013-01-25 11:15:00,
2013-01-25 05:20:00,28.0,22.3,30.11,NE,53,0.0,0.0,79,0.00,CLR,,0.00,WeatherDisplay:10.37,2013-01-25 11:20:00,
2013-01-25 05:25:00,28.0,22.3,30.11,NE,53,0.0,0.0,79,0.00,CLR,,0.00,WeatherDisplay:10.37,2013-01-25 11:25:00,
2013-01-25 05:30:00,28.1,22.4,30.09,ENE,76,1.1,0.0,79,0.00,CLR,,0.00,WeatherDisplay:10.37,2013-01-25 11:30:00,
2013-01-25 05:35:00,28.1,22.4,30.10,ESE,103,1.0,1.0,79,0.00,CLR,,0.00,WeatherDisplay:10.37,2013-01-25 11:35:00,
2013-01-25 05:40:00,28.1,22.4,30.09,East,88,2.3,2.3,79,0.00,CLR,,0.00,WeatherDisplay:10.37,2013-01-25 11:40:00,
2013-01-25 05:45:00,28.1,22.4,30.08,East,91,1.1,1.1,79,0.00,CLR,,0.00,WeatherDisplay:10.37,2013-01-25 11:45:00,
2013-01-25 05:50:00,28.2,22.8,30.10,ENE,63,0.0,0.0,80,0.00,CLR,,0.00,WeatherDisplay:10.37,2013-01-25 11:50:00,
2013-01-25 05:55:00,28.2,23.1,30.11,ENE,63,0.0,0.0,81,0.00,CLR,,0.00,WeatherDisplay:10.37,2013-01-25 11:55:00,
2013-01-25 06:00:00,28.2,23.1,30.10,ENE,63,0.0,0.0,81,0.00,CLR,,0.00,WeatherDisplay:10.37,2013-01-25 12:00:00,
2013-01-25 06:05:00,28.1,23.3,30.11,ENE,63,0.0,0.0,82,0.00,CLR,,0.00,WeatherDisplay:10.37,2013-01-25 12:05:00,
2013-01-25 06:10:00,28.1,23.3,30.11,ENE,63,0.0,0.0,82,0.00,CLR,,0.00,WeatherDisplay:10.37,2013-01-25 12:10:00,
2013-01-25 06:15:00,28.1,23.6,30.11,ENE,63,0.0,0.0,83,0.00,CLR,,0.00,WeatherDisplay:10.37,2013-01-25 12:15:00,
2013-01-25 06:20:00,28.1,23.6,30.11,ENE,78,0.0,0.0,83,0.00,CLR,,0.00,WeatherDisplay:10.37,2013-01-25 12:20:00,
2013-01-25 06:25:00,28.0,23.5,30.11,ENE,77,0.0,0.0,83,0.00,CLR,,0.00,WeatherDisplay:10.37,2013-01-25 12:25:00,
2013-01-25 06:30:00,28.0,23.8,30.11,East,94,0.0,0.0,84,0.00,CLR,,0.00,WeatherDisplay:10.37,2013-01-25 12:30:00,
2013-01-25 06:35:00,27.9,23.7,30.10,East,94,0.0,0.0,84,0.00,CLR,,0.00,WeatherDisplay:10.37,2013-01-25 12:35:00,
2013-01-25 06:40:00,27.9,24.0,30.11,East,94,0.0,0.0,85,0.00,CLR,,0.00,WeatherDisplay:10.37,2013-01-25 12:40:00,
2013-01-25 06:45:00,27.9,24.0,30.10,East,94,0.0,0.0,85,0.00,CLR,,0.00,WeatherDisplay:10.37,2013-01-25 12:45:00,
2013-01-25 06:50:00,28.0,24.4,30.10,East,94,0.0,0.0,86,0.00,CLR,,0.00,WeatherDisplay:10.37,2013-01-25 12:50:00,
2013-01-25 06:55:00,27.9,24.3,30.10,East,94,0.0,0.0,86,0.00,CLR,,0.00,WeatherDisplay:10.37,2013-01-25 12:55:00,
2013-01-25 07:00:00,27.9,24.5,30.09,East,94,0.0,0.0,87,0.00,CLR,,0.00,WeatherDisplay:10.37,2013-01-25 13:00:00,
2013-01-25 07:05:00,27.8,24.4,30.10,East,94,0.0,0.0,87,0.00,CLR,,0.00,WeatherDisplay:10.37,2013-01-25 13:05:00,
2013-01-25 07:10:00,27.7,24.6,30.11,East,94,0.0,0.0,88,0.00,CLR,,0.00,WeatherDisplay:10.37,2013-01-25 13:10:00,
2013-01-25 07:15:00,27.6,24.5,30.10,East,94,0.0,0.0,88,0.00,CLR,,0.00,WeatherDisplay:10.37,2013-01-25 13:15:00,
2013-01-25 07:20:00,27.6,24.5,30.10,East,94,0.0,0.0,88,0.00,CLR,,0.00,WeatherDisplay:10.37,2013-01-25 13:20:00,
2013-01-25 07:25:00,27.6,24.8,30.11,NNE,31,0.0,0.0,89,0.00,CLR,,0.00,WeatherDisplay:10.37,2013-01-25 13:25:00,
2013-01-25 07:30:00,27.6,24.8,30.11,NNW,348,2.3,2.3,89,0.00,CLR,,0.00,WeatherDisplay:10.37,2013-01-25 13:30:00,
2013-01-25 07:35:00,27.6,24.8,30.11,NNW,327,0.0,0.0,89,0.00,CLR,,0.00,WeatherDisplay:10.37,2013-01-25 13:35:00,
2013-01-25 07:40:00,27.5,24.7,30.12,NNW,336,2.3,2.3,89,0.00,CLR,,0.00,WeatherDisplay:10.37,2013-01-25 13:40:00,
2013-01-25 07:45:00,27.6,24.8,30.10,NNW,336,0.0,0.0,89,0.00,CLR,,0.00,WeatherDisplay:10.37,2013-01-25 13:45:00,
2013-01-25 07:50:00,27.6,24.8,30.11,NNW,336,0.0,0.0,89,0.00,CLR,,0.00,WeatherDisplay:10.37,2013-01-25 13:50:00,
2013-01-25 07:55:00,27.6,24.8,30.10,NNW,336,0.0,0.0,89,0.00,CLR,,0.00,WeatherDisplay:10.37,2013-01-25 13:55:00,
2013-01-25 08:00:00,27.7,25.2,30.11,NNW,336,0.0,0.0,90,0.00,CLR,,0.00,WeatherDisplay:10.37,2013-01-25 14:00:00,
2013-01-25 08:05:00,27.8,25.0,30.11,NNW,336,0.0,0.0,89,0.00,CLR,,0.00,WeatherDisplay:10.37,2013-01-25 14:05:00,
2013-01-25 08:10:00,27.9,25.1,30.11,NNW,336,0.0,0.0,89,0.00,CLR,,0.00,WeatherDisplay:10.37,2013-01-25 14:10:00,
2013-01-25 08:15:00,27.9,25.1,30.11,NNW,336,0.0,0.0,89,0.00,CLR,,0.00,WeatherDisplay:10.37,2013-01-25 14:15:00,
2013-01-25 08:20:00,27.9,25.1,30.11,NNW,336,0.0,0.0,89,0.00,CLR,,0.00,WeatherDisplay:10.37,2013-01-25 14:20:00,
2013-01-25 08:25:00,27.9,25.1,30.11,NNW,336,0.0,0.0,89,0.00,CLR,,0.00,WeatherDisplay:10.37,2013-01-25 14:25:00,
2013-01-25 08:30:00,28.0,25.2,30.11,NNW,336,0.0,0.0,89,0.00,CLR,,0.00,WeatherDisplay:10.37,2013-01-25 14:30:00,
2013-01-25 08:35:00,28.1,25.0,30.12,NNW,336,0.0,0.0,88,0.00,CLR,,0.00,WeatherDisplay:10.37,2013-01-25 14:35:00,
2013-01-25 08:40:00,28.1,25.0,30.13,NNW,336,0.0,0.0,88,0.00,CLR,,0.00,WeatherDisplay:10.37,2013-01-25 14:40:00,
2013-01-25 08:45:00,28.2,25.1,30.13,NNW,336,0.0,0.0,88,0.00,CLR,,0.00,WeatherDisplay:10.37,2013-01-25 14:45:00,
2013-01-25 08:50:00,28.3,25.2,30.14,NNW,336,1.1,1.1,88,0.00,CLR,,0.00,WeatherDisplay:10.37,2013-01-25 14:50:00,
2013-01-25 08:55:00,28.4,25.3,30.14,NNW,336,0.0,0.0,88,0.00,CLR,,0.00,WeatherDisplay:10.37,2013-01-25 14:55:00,
2013-01-25 09:00:00,28.6,25.5,30.14,NNW,336,0.0,0.0,88,0.00,CLR,,0.00,WeatherDisplay:10.37,2013-01-25 15:00:00,
2013-01-25 09:05:00,28.7,25.3,30.14,NNW,336,0.0,0.1,87,0.00,CLR,,0.00,WeatherDisplay:10.37,2013-01-25 15:05:00,
2013-01-25 09:10:00,28.8,25.4,30.14,NNW,336,0.0,0.0,87,0.00,CLR,,0.00,WeatherDisplay:10.37,2013-01-25 15:10:00,
2013-01-25 09:15:00,28.9,25.5,30.15,NNW,336,0.0,0.0,87,0.00,CLR,,0.00,WeatherDisplay:10.37,2013-01-25 15:15:00,
2013-01-25 09:20:00,29.0,25.3,30.15,NW,320,2.3,0.0,86,0.00,CLR,,0.00,WeatherDisplay:10.37,2013-01-25 15:20:00,
2013-01-25 09:25:00,29.1,25.4,30.15,NW,320,1.1,1.1,86,0.00,CLR,,0.00,WeatherDisplay:10.37,2013-01-25 15:25:00,
2013-01-25 09:31:00,29.2,25.3,30.14,NW,322,0.0,0.0,85,0.00,CLR,,0.00,WeatherDisplay:10.37,2013-01-25 15:31:00,
2013-01-25 09:36:00,29.3,25.4,30.15,NW,323,2.3,2.3,85,0.00,CLR,,0.00,WeatherDisplay:10.37,2013-01-25 15:36:00,
2013-01-25 09:41:00,29.3,25.1,30.15,NW,324,0.0,0.4,84,0.00,CLR,,0.00,WeatherDisplay:10.37,2013-01-25 15:41:00,
2013-01-25 09:46:00,29.4,25.2,30.15,NW,324,2.3,2.3,84,0.00,CLR,,0.00,WeatherDisplay:10.37,2013-01-25 15:46:00,
2013-01-25 09:51:00,29.5,25.3,30.15,NW,325,1.1,1.1,84,0.00,CLR,,0.00,WeatherDisplay:10.37,2013-01-25 15:51:00,
2013-01-25 09:56:00,29.5,25.0,30.16,NW,325,0.0,0.0,83,0.00,CLR,,0.00,WeatherDisplay:10.37,2013-01-25 15:56:00,
2013-01-25 10:01:00,29.7,25.5,30.16,NW,325,0.0,0.0,84,0.00,CLR,,0.00,WeatherDisplay:10.37,2013-01-25 16:01:00,
2013-01-25 10:06:00,30.0,25.8,30.16,NW,325,0.0,0.0,84,0.00,CLR,,0.00,WeatherDisplay:10.37,2013-01-25 16:06:00,
2013-01-25 10:11:00,30.3,26.0,30.16,West,267,1.1,1.1,84,0.00,CLR,,0.00,WeatherDisplay:10.37,2013-01-25 16:11:00,
2013-01-25 10:16:00,30.8,26.5,30.16,West,267,0.0,0.0,84,0.00,CLR,,0.00,WeatherDisplay:10.37,2013-01-25 16:16:00,
2013-01-25 10:21:00,31.1,26.5,30.15,NW,314,4.6,4.6,83,0.00,CLR,,0.00,WeatherDisplay:10.37,2013-01-25 16:21:00,
2013-01-25 10:26:00,31.5,26.6,30.15,NW,304,1.1,1.1,82,0.00,CLR,,0.00,WeatherDisplay:10.37,2013-01-25 16:26:00,
2013-01-25 10:31:00,31.8,26.6,30.15,NW,305,3.5,3.5,81,0.01,RA,,0.01,WeatherDisplay:10.37,2013-01-25 16:31:00,
2013-01-25 10:36:00,32.0,26.8,30.15,NW,304,3.5,3.5,81,0.01,RA,,0.01,WeatherDisplay:10.37,2013-01-25 16:36:00,
2013-01-25 10:41:00,32.0,26.5,30.15,NW,315,1.1,1.1,80,0.01,CLR,,0.01,WeatherDisplay:10.37,2013-01-25 16:41:00,
2013-01-25 10:46:00,32.0,26.5,30.16,WNW,285,4.6,4.6,80,0.01,CLR,,0.01,WeatherDisplay:10.37,2013-01-25 16:46:00,
2013-01-25 10:51:00,32.4,27.2,30.16,NW,307,3.5,3.5,81,0.01,CLR,,0.01,WeatherDisplay:10.37,2013-01-25 16:51:00,
2013-01-25 10:56:00,32.4,26.3,30.16,NW,321,0.0,0.0,78,0.01,CLR,,0.01,WeatherDisplay:10.37,2013-01-25 16:56:00,
2013-01-25 11:01:00,32.3,26.2,30.16,West,272,0.0,0.0,78,0.01,CLR,,0.01,WeatherDisplay:10.37,2013-01-25 17:01:00,
2013-01-25 11:06:00,32.8,27.3,30.16,WSW,256,5.8,5.8,80,0.01,CLR,,0.01,WeatherDisplay:10.37,2013-01-25 17:06:00,
2013-01-25 11:11:00,33.5,28.0,30.16,NW,311,1.1,0.0,80,0.01,CLR,,0.01,WeatherDisplay:10.37,2013-01-25 17:11:00,
2013-01-25 11:16:00,33.7,27.3,30.15,WNW,294,5.0,5.0,77,0.01,CLR,,0.01,WeatherDisplay:10.37,2013-01-25 17:16:00,
2013-01-25 11:21:00,33.8,26.7,30.16,NNW,336,3.5,3.5,75,0.01,CLR,,0.01,WeatherDisplay:10.37,2013-01-25 17:21:00,
2013-01-25 11:26:00,33.9,26.8,30.16,NW,321,3.5,3.5,75,0.01,CLR,,0.01,WeatherDisplay:10.37,2013-01-25 17:26:00,
2013-01-25 11:31:00,34.4,27.3,30.15,NNW,338,3.5,3.5,75,0.00,CLR,,0.01,WeatherDisplay:10.37,2013-01-25 17:31:00,
2013-01-25 11:36:00,34.3,26.2,30.15,West,274,9.2,9.2,72,0.00,CLR,,0.01,WeatherDisplay:10.37,2013-01-25 17:36:00,
2013-01-25 11:41:00,34.9,27.8,30.15,WNW,300,11.5,11.5,75,0.00,CLR,,0.01,WeatherDisplay:10.37,2013-01-25 17:41:00,
2013-01-25 11:46:00,35.0,26.9,30.15,WNW,302,4.6,4.6,72,0.00,CLR,,0.01,WeatherDisplay:10.37,2013-01-25 17:46:00,
2013-01-25 11:51:00,35.0,26.5,30.15,NW,315,6.9,6.9,71,0.00,CLR,,0.01,WeatherDisplay:10.37,2013-01-25 17:51:00,
2013-01-25 11:56:00,35.1,26.3,30.15,NNW,343,8.1,8.1,70,0.00,CLR,,0.01,WeatherDisplay:10.37,2013-01-25 17:56:00,
2013-01-25 12:01:00,35.3,26.8,30.14,North,360,3.5,3.5,71,0.00,CLR,,0.01,WeatherDisplay:10.37,2013-01-25 18:01:00,
2013-01-25 12:06:00,35.6,26.8,30.13,NNW,348,3.5,3.5,70,0.00,CLR,,0.01,WeatherDisplay:10.37,2013-01-25 18:06:00,
2013-01-25 12:11:00,35.6,26.8,30.13,NNW,329,5.8,5.8,70,0.00,CLR,,0.01,WeatherDisplay:10.37,2013-01-25 18:11:00,
2013-01-25 12:16:00,35.6,26.8,30.13,NW,307,5.8,5.8,70,0.00,CLR,,0.01,WeatherDisplay:10.37,2013-01-25 18:16:00,
2013-01-25 12:21:00,35.8,27.0,30.13,NW,304,4.6,4.6,70,0.00,CLR,,0.01,WeatherDisplay:10.37,2013-01-25 18:21:00,
2013-01-25 12:26:00,35.9,26.7,30.13,North,5,3.5,3.5,69,0.00,CLR,,0.01,WeatherDisplay:10.37,2013-01-25 18:26:00,
2013-01-25 12:31:00,35.9,26.7,30.13,NNW,344,1.1,1.1,69,0.00,CLR,,0.01,WeatherDisplay:10.37,2013-01-25 18:31:00,
2013-01-25 12:36:00,36.0,26.8,30.12,NNE,27,0.0,0.0,69,0.00,CLR,,0.01,WeatherDisplay:10.37,2013-01-25 18:36:00,
2013-01-25 12:41:00,36.5,28.0,30.12,WNW,292,1.1,1.1,71,0.00,CLR,,0.01,WeatherDisplay:10.37,2013-01-25 18:41:00,
2013-01-25 12:46:00,36.9,27.3,30.12,NNW,327,1.1,1.1,68,0.00,CLR,,0.01,WeatherDisplay:10.37,2013-01-25 18:46:00,
2013-01-25 12:51:00,37.1,27.5,30.12,North,350,3.5,3.5,68,0.00,CLR,,0.01,WeatherDisplay:10.37,2013-01-25 18:51:00,
2013-01-25 12:56:00,37.2,27.2,30.12,NW,318,1.1,0.0,67,0.00,CLR,,0.01,WeatherDisplay:10.37,2013-01-25 18:56:00,
2013-01-25 13:01:00,37.5,27.5,30.12,West,279,5.0,5.0,67,0.00,CLR,,0.01,WeatherDisplay:10.37,2013-01-25 19:01:00,
2013-01-25 13:06:00,37.9,27.9,30.12,WNW,286,1.1,1.1,67,0.00,CLR,,0.01,WeatherDisplay:10.37,2013-01-25 19:06:00,
2013-01-25 13:11:00,37.8,27.5,30.12,West,281,4.6,4.6,66,0.00,CLR,,0.01,WeatherDisplay:10.37,2013-01-25 19:11:00,
2013-01-25 13:16:00,38.0,27.6,30.11,WNW,302,5.8,5.8,66,0.00,CLR,,0.01,WeatherDisplay:10.37,2013-01-25 19:16:00,
2013-01-25 13:21:00,38.0,27.3,30.12,NW,315,4.6,4.6,65,0.00,CLR,,0.01,WeatherDisplay:10.37,2013-01-25 19:21:00,
2013-01-25 13:26:00,38.0,27.6,30.12,NW,324,3.5,3.5,66,0.00,CLR,,0.01,WeatherDisplay:10.37,2013-01-25 19:26:00,
2013-01-25 13:31:00,38.5,29.2,30.12,West,263,5.0,5.0,69,0.00,CLR,,0.01,WeatherDisplay:10.37,2013-01-25 19:31:00,
2013-01-25 13:36:00,38.9,28.5,30.12,West,261,1.1,0.0,66,0.00,CLR,,0.01,WeatherDisplay:10.37,2013-01-25 19:36:00,
2013-01-25 13:41:00,38.9,28.5,30.12,West,275,3.5,3.5,66,0.00,CLR,,0.01,WeatherDisplay:10.37,2013-01-25 19:41:00,
2013-01-25 13:46:00,38.9,28.1,30.12,NNW,341,2.3,2.3,65,0.00,CLR,,0.01,WeatherDisplay:10.37,2013-01-25 19:46:00,
2013-01-25 13:51:00,38.7,27.9,30.12,NW,321,2.3,2.3,65,0.00,CLR,,0.01,WeatherDisplay:10.37,2013-01-25 19:51:00,
2013-01-25 13:56:00,39.0,29.0,30.13,WSW,248,3.5,3.5,67,0.00,CLR,,0.01,WeatherDisplay:10.37,2013-01-25 19:56:00,
2013-01-25 14:01:00,39.4,29.3,30.13,NW,321,5.8,5.8,67,0.00,CLR,,0.01,WeatherDisplay:10.37,2013-01-25 20:01:00,
2013-01-25 14:06:00,39.5,29.1,30.12,West,273,4.0,4.0,66,0.00,CLR,,0.01,WeatherDisplay:10.37,2013-01-25 20:06:00,
2013-01-25 14:11:00,39.5,29.1,30.12,West,262,3.0,3.0,66,0.00,CLR,,0.01,WeatherDisplay:10.37,2013-01-25 20:11:00,
2013-01-25 14:16:00,39.5,29.1,30.13,WNW,283,5.8,5.8,66,0.00,CLR,,0.01,WeatherDisplay:10.37,2013-01-25 20:16:00,
2013-01-25 14:21:00,39.6,29.2,30.12,West,265,6.0,6.0,66,0.00,CLR,,0.01,WeatherDisplay:10.37,2013-01-25 20:21:00,
2013-01-25 14:26:00,39.6,28.8,30.12,WSW,255,3.5,3.5,65,0.00,CLR,,0.01,WeatherDisplay:10.37,2013-01-25 20:26:00,
2013-01-25 14:31:00,39.4,28.2,30.12,West,262,4.0,4.0,64,0.00,CLR,,0.01,WeatherDisplay:10.37,2013-01-25 20:31:00,
2013-01-25 14:36:00,39.5,28.7,30.12,WSW,249,4.6,4.6,65,0.00,CLR,,0.01,WeatherDisplay:10.37,2013-01-25 20:36:00,
2013-01-25 14:41:00,39.8,29.7,30.12,WNW,293,3.5,3.5,67,0.00,CLR,,0.01,WeatherDisplay:10.37,2013-01-25 20:41:00,
2013-01-25 14:46:00,40.2,29.4,30.13,SW,225,1.1,0.0,65,0.00,CLR,,0.01,WeatherDisplay:10.37,2013-01-25 20:46:00,
2013-01-25 14:52:00,40.7,29.8,30.13,WSW,250,5.8,5.8,65,0.00,CLR,,0.01,WeatherDisplay:10.37,2013-01-25 20:52:00,
2013-01-25 14:57:00,41.2,29.9,30.13,NW,321,1.1,1.1,64,0.00,CLR,,0.01,WeatherDisplay:10.37,2013-01-25 20:57:00,
2013-01-25 15:02:00,41.6,30.7,30.13,West,272,6.0,6.0,65,0.00,CLR,,0.01,WeatherDisplay:10.37,2013-01-25 21:02:00,
2013-01-25 15:07:00,41.7,29.6,30.13,NW,309,3.5,3.5,62,0.00,CLR,,0.01,WeatherDisplay:10.37,2013-01-25 21:07:00,
2013-01-25 15:12:00,41.8,30.5,30.14,WSW,243,6.9,6.9,64,0.00,CLR,,0.01,WeatherDisplay:10.37,2013-01-25 21:12:00,
2013-01-25 15:17:00,42.0,30.3,30.14,NW,311,5.8,5.8,63,0.00,CLR,,0.01,WeatherDisplay:10.37,2013-01-25 21:17:00,
2013-01-25 15:22:00,41.5,29.8,30.14,West,269,9.2,9.2,63,0.00,CLR,,0.01,WeatherDisplay:10.37,2013-01-25 21:22:00,
2013-01-25 15:27:00,41.2,29.9,30.14,West,274,5.8,5.8,64,0.00,CLR,,0.01,WeatherDisplay:10.37,2013-01-25 21:27:00,
2013-01-25 15:32:00,40.8,28.8,30.14,West,272,4.0,4.0,62,0.00,CLR,,0.01,WeatherDisplay:10.37,2013-01-25 21:32:00,
2013-01-25 15:37:00,40.7,29.5,30.13,West,259,2.3,2.3,64,0.00,CLR,,0.01,WeatherDisplay:10.37,2013-01-25 21:37:00,
2013-01-25 15:42:00,40.9,30.0,30.13,West,267,4.6,4.6,65,0.00,CLR,,0.01,WeatherDisplay:10.37,2013-01-25 21:42:00,
2013-01-25 15:47:00,41.1,29.8,30.13,SW,235,2.3,2.3,64,0.00,CLR,,0.01,WeatherDisplay:10.37,2013-01-25 21:47:00,
2013-01-25 15:52:00,41.1,29.8,30.13,WSW,258,3.5,3.5,64,0.00,CLR,,0.01,WeatherDisplay:10.37,2013-01-25 21:52:00,
2013-01-25 15:57:00,41.1,29.8,30.13,WSW,251,3.5,3.5,64,0.00,CLR,,0.01,WeatherDisplay:10.37,2013-01-25 21:57:00,
2013-01-25 16:02:00,40.9,29.7,30.13,WSW,239,3.5,3.5,64,0.00,CLR,,0.01,WeatherDisplay:10.37,2013-01-25 22:02:00,
2013-01-25 16:07:00,40.9,29.7,30.13,SW,217,3.5,3.5,64,0.00,CLR,,0.01,WeatherDisplay:10.37,2013-01-25 22:07:00,
2013-01-25 16:12:00,40.9,29.3,30.13,SSW,202,3.5,3.5,63,0.00,CLR,,0.01,WeatherDisplay:10.37,2013-01-25 22:12:00,
2013-01-25 16:17:00,40.9,29.7,30.13,WSW,252,4.0,4.0,64,0.00,CLR,,0.01,WeatherDisplay:10.37,2013-01-25 22:17:00,
2013-01-25 16:22:00,40.7,29.5,30.13,SW,225,3.5,3.5,64,0.00,CLR,,0.01,WeatherDisplay:10.37,2013-01-25 22:22:00,
2013-01-25 16:27:00,40.6,29.7,30.14,WSW,257,4.6,4.6,65,0.00,CLR,,0.01,WeatherDisplay:10.37,2013-01-25 22:27:00,
2013-01-25 16:32:00,40.2,29.0,30.13,SW,227,4.6,4.6,64,0.00,CLR,,0.01,WeatherDisplay:10.37,2013-01-25 22:32:00,
2013-01-25 16:37:00,39.7,28.9,30.13,SW,214,3.5,3.5,65,0.00,CLR,,0.01,WeatherDisplay:10.37,2013-01-25 22:37:00,
2013-01-25 16:42:00,39.4,28.6,30.13,WSW,240,3.5,3.5,65,0.00,CLR,,0.01,WeatherDisplay:10.37,2013-01-25 22:42:00,
2013-01-25 16:47:00,39.0,28.6,30.13,West,262,3.5,3.5,66,0.00,CLR,,0.01,WeatherDisplay:10.37,2013-01-25 22:47:00,
2013-01-25 16:52:00,38.7,28.7,30.13,SW,225,1.1,1.1,67,0.00,CLR,,0.01,WeatherDisplay:10.37,2013-01-25 22:52:00,
2013-01-25 16:57:00,38.4,28.4,30.14,SW,225,2.3,2.3,67,0.00,CLR,,0.01,WeatherDisplay:10.37,2013-01-25 22:57:00,
2013-01-25 17:02:00,38.1,28.1,30.13,SW,225,1.1,1.1,67,0.00,CLR,,0.01,WeatherDisplay:10.37,2013-01-25 23:02:00,
2013-01-25 17:07:00,37.9,28.3,30.13,SW,225,0.0,0.0,68,0.00,CLR,,0.01,WeatherDisplay:10.37,2013-01-25 23:07:00,
2013-01-25 17:12:00,37.7,28.1,30.14,SW,225,0.0,0.0,68,0.00,CLR,,0.01,WeatherDisplay:10.37,2013-01-25 23:12:00,
2013-01-25 17:17:00,37.5,27.9,30.14,SW,225,0.0,0.0,68,0.00,CLR,,0.01,WeatherDisplay:10.37,2013-01-25 23:17:00,
2013-01-25 17:22:00,37.2,27.6,30.14,SW,225,0.0,0.0,68,0.00,CLR,,0.01,WeatherDisplay:10.37,2013-01-25 23:22:00,
2013-01-25 17:27:00,36.9,27.7,30.14,SW,225,0.0,0.0,69,0.00,CLR,,0.01,WeatherDisplay:10.37,2013-01-25 23:27:00,
2013-01-25 17:32:00,36.5,27.6,30.14,SW,225,0.0,0.0,70,0.00,CLR,,0.01,WeatherDisplay:10.37,2013-01-25 23:32:00,
2013-01-25 17:37:00,36.3,27.8,30.14,SW,225,0.0,0.0,71,0.00,CLR,,0.01,WeatherDisplay:10.37,2013-01-25 23:37:00,
2013-01-25 17:42:00,36.0,27.5,30.14,SW,225,0.0,0.1,71,0.00,CLR,,0.01,WeatherDisplay:10.37,2013-01-25 23:42:00,
2013-01-25 17:47:00,35.8,27.7,30.14,SW,225,0.0,0.0,72,0.00,CLR,,0.01,WeatherDisplay:10.37,2013-01-25 23:47:00,
2013-01-25 17:52:00,35.6,27.8,30.15,SW,225,0.0,0.0,73,0.00,CLR,,0.01,WeatherDisplay:10.37,2013-01-25 23:52:00,
2013-01-25 17:57:00,35.3,27.5,30.15,SW,225,0.0,0.0,73,0.00,CLR,,0.01,WeatherDisplay:10.37,2013-01-25 23:57:00,
2013-01-25 18:02:00,35.1,27.6,30.15,SW,225,0.0,0.0,74,0.00,CLR,,0.01,WeatherDisplay:10.37,2013-01-26 00:02:00,
2013-01-25 18:07:00,35.0,27.5,30.16,SW,225,0.0,0.0,74,0.00,CLR,,0.01,WeatherDisplay:10.37,2013-01-26 00:07:00,
2013-01-25 18:12:00,34.8,27.4,30.16,SW,225,0.0,0.0,74,0.00,CLR,,0.01,WeatherDisplay:10.37,2013-01-26 00:12:00,
2013-01-25 18:17:00,34.6,27.5,30.17,SW,225,0.0,0.0,75,0.00,CLR,,0.01,WeatherDisplay:10.37,2013-01-26 00:17:00,
2013-01-25 18:22:00,34.4,27.3,30.16,SW,225,0.0,0.0,75,0.00,CLR,,0.01,WeatherDisplay:10.37,2013-01-26 00:22:00,
2013-01-25 18:27:00,34.3,27.5,30.17,SW,225,0.0,0.0,76,0.00,CLR,,0.01,WeatherDisplay:10.37,2013-01-26 00:27:00,
2013-01-25 18:32:00,34.1,27.3,30.16,SW,225,0.0,0.0,76,0.00,CLR,,0.01,WeatherDisplay:10.37,2013-01-26 00:32:00,
2013-01-25 18:37:00,34.0,27.5,30.16,SW,225,0.0,0.0,77,0.00,CLR,,0.01,WeatherDisplay:10.37,2013-01-26 00:37:00,
2013-01-25 18:42:00,33.8,27.4,30.17,SW,225,0.0,0.0,77,0.00,CLR,,0.01,WeatherDisplay:10.37,2013-01-26 00:42:00,
2013-01-25 18:47:00,33.5,27.1,30.17,SW,225,0.0,0.0,77,0.00,CLR,,0.01,WeatherDisplay:10.37,2013-01-26 00:47:00,
2013-01-25 18:52:00,33.4,27.3,30.17,SW,225,1.1,0.0,78,0.00,CLR,,0.01,WeatherDisplay:10.37,2013-01-26 00:52:00,
2013-01-25 18:57:00,33.2,27.1,30.17,SW,225,1.1,1.1,78,0.00,CLR,,0.01,WeatherDisplay:10.37,2013-01-26 00:57:00,
2013-01-25 19:02:00,33.1,27.3,30.16,SW,225,0.0,0.0,79,0.00,CLR,,0.01,WeatherDisplay:10.37,2013-01-26 01:02:00,
2013-01-25 19:07:00,33.0,27.5,30.17,SW,225,0.0,0.0,80,0.00,CLR,,0.01,WeatherDisplay:10.37,2013-01-26 01:07:00,
2013-01-25 19:12:00,33.1,27.6,30.16,SW,225,0.0,0.0,80,0.00,CLR,,0.01,WeatherDisplay:10.37,2013-01-26 01:12:00,
2013-01-25 19:17:00,33.1,27.6,30.16,SW,225,0.0,0.0,80,0.00,CLR,,0.01,WeatherDisplay:10.37,2013-01-26 01:17:00,
2013-01-25 19:22:00,33.0,27.8,30.16,SW,225,0.0,0.0,81,0.00,CLR,,0.01,WeatherDisplay:10.37,2013-01-26 01:22:00,
2013-01-25 19:27:00,32.9,27.7,30.16,SW,225,0.0,0.0,81,0.00,CLR,,0.01,WeatherDisplay:10.37,2013-01-26 01:27:00,
2013-01-25 19:32:00,32.9,27.7,30.17,SW,225,0.0,0.0,81,0.00,CLR,,0.01,WeatherDisplay:10.37,2013-01-26 01:32:00,
2013-01-25 19:37:00,32.9,27.7,30.16,SW,225,0.0,0.0,81,0.00,CLR,,0.01,WeatherDisplay:10.37,2013-01-26 01:37:00,
2013-01-25 19:42:00,32.8,27.9,30.17,SW,225,0.0,0.0,82,0.00,CLR,,0.01,WeatherDisplay:10.37,2013-01-26 01:42:00,
2013-01-25 19:47:00,32.7,27.8,30.16,SW,225,0.0,0.0,82,0.00,CLR,,0.01,WeatherDisplay:10.37,2013-01-26 01:47:00,
2013-01-25 19:52:00,32.5,27.6,30.17,SW,225,0.0,0.0,82,0.00,CLR,,0.01,WeatherDisplay:10.37,2013-01-26 01:52:00,
2013-01-25 19:57:00,32.4,27.5,30.17,SW,225,0.0,0.0,82,0.00,CLR,,0.01,WeatherDisplay:10.37,2013-01-26 01:57:00,
2013-01-25 20:02:00,32.3,27.4,30.17,SW,225,0.0,0.0,82,0.00,CLR,,0.01,WeatherDisplay:10.37,2013-01-26 02:02:00,
2013-01-25 20:07:00,32.2,27.6,30.16,SW,225,0.0,0.0,83,0.00,CLR,,0.01,WeatherDisplay:10.37,2013-01-26 02:07:00,
2013-01-25 20:13:00,32.2,27.6,30.16,SW,225,0.0,0.1,83,0.00,CLR,,0.01,WeatherDisplay:10.37,2013-01-26 02:13:00,
2013-01-25 20:18:00,32.2,27.6,30.17,SW,225,0.0,0.0,83,0.00,CLR,,0.01,WeatherDisplay:10.37,2013-01-26 02:18:00,
2013-01-25 20:23:00,32.1,27.5,30.16,SW,225,0.0,0.0,83,0.00,CLR,,0.01,WeatherDisplay:10.37,2013-01-26 02:23:00,
2013-01-25 20:28:00,32.0,27.4,30.17,SW,225,1.1,1.1,83,0.00,CLR,,0.01,WeatherDisplay:10.37,2013-01-26 02:28:00,
2013-01-25 20:33:00,31.8,27.2,30.17,SW,225,0.0,0.0,83,0.00,CLR,,0.01,WeatherDisplay:10.37,2013-01-26 02:33:00,
2013-01-25 20:38:00,31.7,27.1,30.17,SW,225,0.0,0.0,83,0.00,CLR,,0.01,WeatherDisplay:10.37,2013-01-26 02:38:00,
2013-01-25 20:43:00,31.6,27.3,30.17,SW,225,0.0,0.0,84,0.00,CLR,,0.01,WeatherDisplay:10.37,2013-01-26 02:43:00,
2013-01-25 20:48:00,31.5,27.2,30.17,SW,225,0.0,0.0,84,0.00,CLR,,0.01,WeatherDisplay:10.37,2013-01-26 02:48:00,
2013-01-25 20:53:00,31.4,27.1,30.17,SW,225,0.0,0.0,84,0.00,CLR,,0.01,WeatherDisplay:10.37,2013-01-26 02:53:00,
2013-01-25 20:58:00,31.3,27.0,30.17,SW,225,0.0,0.0,84,0.00,CLR,,0.01,WeatherDisplay:10.37,2013-01-26 02:58:00,
2013-01-25 21:03:00,31.2,26.9,30.17,SW,225,0.0,0.0,84,0.00,CLR,,0.01,WeatherDisplay:10.37,2013-01-26 03:03:00,
2013-01-25 21:08:00,31.2,27.2,30.17,SW,225,0.0,0.0,85,0.00,CLR,,0.01,WeatherDisplay:10.37,2013-01-26 03:08:00,
2013-01-25 21:13:00,31.2,27.2,30.18,SSW,213,2.3,2.3,85,0.00,CLR,,0.01,WeatherDisplay:10.37,2013-01-26 03:13:00,
2013-01-25 21:18:00,31.3,27.3,30.17,SSW,209,1.1,1.1,85,0.00,CLR,,0.01,WeatherDisplay:10.37,2013-01-26 03:18:00,
2013-01-25 21:23:00,31.3,27.6,30.18,SW,214,2.3,2.3,86,0.00,CLR,,0.01,WeatherDisplay:10.37,2013-01-26 03:23:00,
2013-01-25 21:28:00,31.3,27.6,30.18,SSW,211,0.0,0.0,86,0.00,CLR,,0.01,WeatherDisplay:10.37,2013-01-26 03:28:00,
2013-01-25 21:33:00,31.2,27.5,30.18,SSW,211,0.0,0.0,86,0.00,CLR,,0.01,WeatherDisplay:10.37,2013-01-26 03:33:00,
2013-01-25 21:38:00,31.2,27.5,30.18,SSW,211,0.0,0.0,86,0.00,CLR,,0.01,WeatherDisplay:10.37,2013-01-26 03:38:00,
2013-01-25 21:43:00,31.1,27.4,30.18,SSW,211,0.0,0.0,86,0.00,CLR,,0.01,WeatherDisplay:10.37,2013-01-26 03:43:00,
2013-01-25 21:48:00,31.0,27.3,30.18,SSW,211,0.0,0.0,86,0.00,CLR,,0.01,WeatherDisplay:10.37,2013-01-26 03:48:00,
2013-01-25 21:53:00,30.9,27.2,30.18,SSW,211,0.0,0.0,86,0.00,CLR,,0.01,WeatherDisplay:10.37,2013-01-26 03:53:00,
2013-01-25 21:58:00,30.8,27.1,30.18,SSW,211,0.0,0.0,86,0.00,CLR,,0.01,WeatherDisplay:10.37,2013-01-26 03:58:00,
2013-01-25 22:03:00,30.8,27.4,30.19,SSW,209,1.1,1.1,87,0.00,CLR,,0.01,WeatherDisplay:10.37,2013-01-26 04:03:00,
2013-01-25 22:08:00,30.8,27.4,30.19,SSW,200,1.1,1.1,87,0.00,CLR,,0.01,WeatherDisplay:10.37,2013-01-26 04:08:00,
2013-01-25 22:13:00,30.9,27.8,30.19,SW,225,3.0,3.0,88,0.00,CLR,,0.01,WeatherDisplay:10.37,2013-01-26 04:13:00,
2013-01-25 22:18:00,31.2,28.1,30.19,SSW,211,4.6,4.6,88,0.00,CLR,,0.01,WeatherDisplay:10.37,2013-01-26 04:18:00,
2013-01-25 22:23:00,31.4,28.0,30.19,SSW,206,4.0,4.0,87,0.00,CLR,,0.01,WeatherDisplay:10.37,2013-01-26 04:23:00,
2013-01-25 22:28:00,31.6,27.9,30.19,SW,225,4.6,4.6,86,0.00,CLR,,0.01,WeatherDisplay:10.37,2013-01-26 04:28:00,
2013-01-25 22:33:00,31.6,27.9,30.20,SSW,212,3.5,3.5,86,0.00,CLR,,0.01,WeatherDisplay:10.37,2013-01-26 04:33:00,
2013-01-25 22:38:00,31.7,27.7,30.20,SSW,196,3.0,3.0,85,0.00,CLR,,0.01,WeatherDisplay:10.37,2013-01-26 04:38:00,
2013-01-25 22:43:00,31.8,27.8,30.20,SSW,202,4.6,4.6,85,0.00,CLR,,0.01,WeatherDisplay:10.37,2013-01-26 04:43:00,
2013-01-25 22:48:00,31.9,27.9,30.20,SSW,213,3.5,3.5,85,0.00,CLR,,0.01,WeatherDisplay:10.37,2013-01-26 04:48:00,
2013-01-25 22:53:00,31.9,27.9,30.20,SW,229,2.3,2.3,85,0.00,CLR,,0.01,WeatherDisplay:10.37,2013-01-26 04:53:00,
2013-01-25 22:58:00,31.9,27.9,30.20,SW,228,3.5,3.5,85,0.00,CLR,,0.01,WeatherDisplay:10.37,2013-01-26 04:58:00,
2013-01-25 23:00:00,31.9,27.9,30.20,WSW,238,3.5,3.5,85,0.00,CLR,,0.01,WeatherDisplay:10.37,2013-01-26 05:00:00,
2013-01-25 23:02:00,31.8,27.5,30.20,SW,223,2.3,2.3,84,0.00,CLR,,0.01,WeatherDisplay:10.37,2013-01-26 05:02:00,
2013-01-25 23:07:00,31.8,27.8,30.21,SW,232,3.5,3.5,85,0.00,CLR,,0.01,WeatherDisplay:10.37,2013-01-26 05:07:00,
2013-01-25 23:12:00,31.9,27.9,30.21,SW,226,3.5,3.5,85,0.00,CLR,,0.01,WeatherDisplay:10.37,2013-01-26 05:12:00,
2013-01-25 23:17:00,31.9,27.6,30.21,SW,234,2.3,2.3,84,0.00,CLR,,0.01,WeatherDisplay:10.37,2013-01-26 05:17:00,
2013-01-25 23:22:00,31.7,27.4,30.21,SW,234,1.1,1.1,84,0.00,CLR,,0.01,WeatherDisplay:10.37,2013-01-26 05:22:00,
2013-01-25 23:27:00,31.6,27.3,30.21,SW,234,1.1,1.1,84,0.00,CLR,,0.01,WeatherDisplay:10.37,2013-01-26 05:27:00,
2013-01-25 23:32:00,31.5,27.5,30.22,SW,234,2.3,2.3,85,0.00,CLR,,0.01,WeatherDisplay:10.37,2013-01-26 05:32:00,
2013-01-25 23:37:00,31.4,27.4,30.22,SW,236,0.0,0.0,85,0.00,CLR,,0.01,WeatherDisplay:10.37,2013-01-26 05:37:00,
2013-01-25 23:42:00,31.2,26.9,30.22,WSW,249,2.3,2.3,84,0.00,CLR,,0.01,WeatherDisplay:10.37,2013-01-26 05:42:00,
2013-01-25 23:47:00,30.8,26.8,30.22,West,279,1.1,1.1,85,0.00,CLR,,0.01,WeatherDisplay:10.37,2013-01-26 05:47:00,
2013-01-25 23:52:00,30.8,27.1,30.22,WNW,290,0.0,0.0,86,0.00,CLR,,0.01,WeatherDisplay:10.37,2013-01-26 05:52:00,
2013-01-25 23:57:00,30.8,27.1,30.23,WNW,290,0.0,0.0,86,0.00,CLR,,0.01,WeatherDisplay:10.37,2013-01-26 05:57:00,